Terminal Aerodrome Forecast
Issued by NWS

Home | Current Version | Previous Version | Graphics & Text | Print | Product List | Glossary On
Versions: 1 2 3 4 5 6 7 8 9 10 11 12 13 14 15 16
000
FTUS43 KLSX 271012 AAA
TAFSUS
TAF AMD
KSUS 271012Z 2710/2806 24003KT P6SM SKC
      TEMPO 2711/2713 3SM BR
     FM271500 26009KT P6SM SKC
     FM280000 VRB03KT P6SM SKC=

USA.gov is the U.S. government's official web portal to all federal, state and local government web resources and services.